sensor_id;sensor_type;location;lat;lon;timestamp;pressure;altitude;pressure_sealevel;temperature;humidity
38253;BME280;24785;52.372;20.672;2023-02-18T00:09:44;99597.03;;;7.14;85.13
38253;BME280;24785;52.372;20.672;2023-02-18T00:19:44;99617.28;;;7.00;85.49
38253;BME280;24785;52.372;20.672;2023-02-18T00:29:45;99615.72;;;6.89;85.71
38253;BME280;24785;52.372;20.672;2023-02-18T00:39:46;99628.50;;;6.82;86.36
38253;BME280;24785;52.372;20.672;2023-02-18T00:49:47;99604.56;;;6.67;83.09
38253;BME280;24785;52.372;20.672;2023-02-18T00:59:48;99641.56;;;6.68;79.32
38253;BME280;24785;52.372;20.672;2023-02-18T01:09:48;99637.53;;;6.35;79.70
38253;BME280;24785;52.372;20.672;2023-02-18T01:19:49;99625.03;;;6.36;78.60
38253;BME280;24785;52.372;20.672;2023-02-18T01:29:50;99619.69;;;6.15;78.84
38253;BME280;24785;52.372;20.672;2023-02-18T01:39:51;99621.84;;;6.23;78.25
38253;BME280;24785;52.372;20.672;2023-02-18T01:49:52;99633.81;;;6.26;77.77
38253;BME280;24785;52.372;20.672;2023-02-18T02:00:19;99641.25;;;6.19;77.31
38253;BME280;24785;52.372;20.672;2023-02-18T02:10:29;99626.31;;;6.13;77.58
38253;BME280;24785;52.372;20.672;2023-02-18T02:41:30;99618.34;;;6.13;75.15
38253;BME280;24785;52.372;20.672;2023-02-18T02:52:11;99645.97;;;6.07;76.28
38253;BME280;24785;52.372;20.672;2023-02-18T03:12:37;99652.91;;;6.08;75.16
38253;BME280;24785;52.372;20.672;2023-02-18T03:22:45;99653.69;;;5.98;75.66
38253;BME280;24785;52.372;20.672;2023-02-18T03:32:51;99678.13;;;5.95;75.49
38253;BME280;24785;52.372;20.672;2023-02-18T03:42:57;99687.97;;;5.89;75.75
38253;BME280;24785;52.372;20.672;2023-02-18T03:52:58;99682.03;;;5.77;75.62
38253;BME280;24785;52.372;20.672;2023-02-18T04:02:59;99701.69;;;5.71;75.67
38253;BME280;24785;52.372;20.672;2023-02-18T04:13:00;99697.63;;;5.63;76.27
38253;BME280;24785;52.372;20.672;2023-02-18T04:23:00;99696.53;;;5.54;76.51
38253;BME280;24785;52.372;20.672;2023-02-18T04:33:01;99697.28;;;5.45;76.78
38253;BME280;24785;52.372;20.672;2023-02-18T04:43:02;99719.59;;;5.44;77.37
38253;BME280;24785;52.372;20.672;2023-02-18T04:53:03;99700.13;;;5.33;77.11
38253;BME280;24785;52.372;20.672;2023-02-18T05:03:04;99721.63;;;5.26;78.36
38253;BME280;24785;52.372;20.672;2023-02-18T05:13:05;99723.13;;;5.17;78.49
38253;BME280;24785;52.372;20.672;2023-02-18T05:23:06;99720.91;;;5.04;78.55
38253;BME280;24785;52.372;20.672;2023-02-18T05:33:06;99737.03;;;4.97;79.11
38253;BME280;24785;52.372;20.672;2023-02-18T05:43:07;99750.09;;;5.04;78.79
38253;BME280;24785;52.372;20.672;2023-02-18T05:53:08;99760.22;;;5.07;79.66
38253;BME280;24785;52.372;20.672;2023-02-18T06:03:09;99780.97;;;5.10;79.40
38253;BME280;24785;52.372;20.672;2023-02-18T06:13:10;99778.25;;;5.05;79.92
38253;BME280;24785;52.372;20.672;2023-02-18T06:23:10;99787.19;;;5.21;78.45
38253;BME280;24785;52.372;20.672;2023-02-18T06:33:11;99820.34;;;5.18;78.64
38253;BME280;24785;52.372;20.672;2023-02-18T06:43:12;99823.34;;;5.27;77.17
38253;BME280;24785;52.372;20.672;2023-02-18T06:53:13;99843.59;;;5.33;76.34
38253;BME280;24785;52.372;20.672;2023-02-18T07:03:16;99829.84;;;5.41;75.37
38253;BME280;24785;52.372;20.672;2023-02-18T07:13:18;99838.09;;;5.45;73.78
38253;BME280;24785;52.372;20.672;2023-02-18T07:23:19;99830.47;;;5.53;73.01
38253;BME280;24785;52.372;20.672;2023-02-18T07:33:20;99829.22;;;5.66;72.40
38253;BME280;24785;52.372;20.672;2023-02-18T07:43:20;99830.00;;;5.61;72.57
38253;BME280;24785;52.372;20.672;2023-02-18T07:53:21;99833.47;;;5.67;71.77
38253;BME280;24785;52.372;20.672;2023-02-18T08:03:25;99840.75;;;5.77;71.66
38253;BME280;24785;52.372;20.672;2023-02-18T08:13:26;99827.13;;;5.68;72.02
38253;BME280;24785;52.372;20.672;2023-02-18T08:23:27;99851.81;;;6.00;71.00
38253;BME280;24785;52.372;20.672;2023-02-18T08:33:28;99842.25;;;5.99;69.60
38253;BME280;24785;52.372;20.672;2023-02-18T08:43:29;99826.88;;;6.12;68.60
38253;BME280;24785;52.372;20.672;2023-02-18T08:53:30;99863.06;;;6.13;68.19
38253;BME280;24785;52.372;20.672;2023-02-18T09:03:31;99868.13;;;6.14;68.84
38253;BME280;24785;52.372;20.672;2023-02-18T09:13:32;99887.00;;;6.13;69.84
38253;BME280;24785;52.372;20.672;2023-02-18T09:23:34;99894.94;;;6.08;69.93
38253;BME280;24785;52.372;20.672;2023-02-18T09:33:36;99892.81;;;6.05;69.44
38253;BME280;24785;52.372;20.672;2023-02-18T09:54:11;99896.00;;;6.07;67.99
38253;BME280;24785;52.372;20.672;2023-02-18T10:14:23;99881.72;;;6.65;66.65
38253;BME280;24785;52.372;20.672;2023-02-18T10:24:35;99910.22;;;6.75;65.83
38253;BME280;24785;52.372;20.672;2023-02-18T10:35:21;99910.25;;;6.85;66.17
38253;BME280;24785;52.372;20.672;2023-02-18T10:45:35;99893.09;;;6.55;66.36
38253;BME280;24785;52.372;20.672;2023-02-18T10:55:43;99912.53;;;6.56;67.70
38253;BME280;24785;52.372;20.672;2023-02-18T11:05:46;99880.78;;;6.39;67.51
38253;BME280;24785;52.372;20.672;2023-02-18T11:16:00;99874.16;;;6.47;68.12
38253;BME280;24785;52.372;20.672;2023-02-18T11:26:04;99887.13;;;6.33;67.26
38253;BME280;24785;52.372;20.672;2023-02-18T11:36:24;99901.06;;;6.50;67.26
38253;BME280;24785;52.372;20.672;2023-02-18T11:46:28;99888.13;;;6.74;67.17
38253;BME280;24785;52.372;20.672;2023-02-18T11:56:32;99871.13;;;6.90;65.72
38253;BME280;24785;52.372;20.672;2023-02-18T12:06:37;99860.81;;;7.14;65.33
38253;BME280;24785;52.372;20.672;2023-02-18T12:17:01;99854.59;;;6.88;65.92
38253;BME280;24785;52.372;20.672;2023-02-18T12:27:20;99828.41;;;6.55;65.46
38253;BME280;24785;52.372;20.672;2023-02-18T12:37:51;99792.00;;;6.86;65.61
38253;BME280;24785;52.372;20.672;2023-02-18T13:18:44;99797.31;;;6.71;66.34
38253;BME280;24785;52.372;20.672;2023-02-18T13:29:14;99817.03;;;6.75;66.04
38253;BME280;24785;52.372;20.672;2023-02-18T13:39:21;99812.97;;;6.62;66.73
38253;BME280;24785;52.372;20.672;2023-02-18T13:49:25;99808.50;;;6.78;67.23
38253;BME280;24785;52.372;20.672;2023-02-18T13:59:38;99801.78;;;6.50;68.36
38253;BME280;24785;52.372;20.672;2023-02-18T14:09:42;99796.16;;;6.46;69.04
38253;BME280;24785;52.372;20.672;2023-02-18T14:50:36;99783.31;;;6.18;72.15
38253;BME280;24785;52.372;20.672;2023-02-18T15:00:40;99814.88;;;5.67;73.64
38253;BME280;24785;52.372;20.672;2023-02-18T15:10:46;99789.72;;;5.43;70.37
38253;BME280;24785;52.372;20.672;2023-02-18T15:20:48;99805.91;;;4.55;78.25
38253;BME280;24785;52.372;20.672;2023-02-18T15:30:49;99824.44;;;3.73;100.00
38253;BME280;24785;52.372;20.672;2023-02-18T15:40:51;99820.53;;;3.59;100.00
38253;BME280;24785;52.372;20.672;2023-02-18T15:50:55;99823.34;;;3.19;100.00
38253;BME280;24785;52.372;20.672;2023-02-18T16:01:02;99805.59;;;3.02;100.00
38253;BME280;24785;52.372;20.672;2023-02-18T16:11:07;99799.41;;;2.97;100.00
38253;BME280;24785;52.372;20.672;2023-02-18T16:31:19;99796.19;;;2.95;100.00
38253;BME280;24785;52.372;20.672;2023-02-18T16:41:21;99789.22;;;2.89;100.00
38253;BME280;24785;52.372;20.672;2023-02-18T16:51:25;99790.03;;;2.89;100.00
38253;BME280;24785;52.372;20.672;2023-02-18T17:01:33;99792.19;;;2.92;100.00
38253;BME280;24785;52.372;20.672;2023-02-18T17:11:37;99786.41;;;2.95;100.00
38253;BME280;24785;52.372;20.672;2023-02-18T17:21:38;99787.47;;;2.94;100.00
38253;BME280;24785;52.372;20.672;2023-02-18T17:31:41;99786.41;;;2.95;100.00
38253;BME280;24785;52.372;20.672;2023-02-18T17:41:44;99781.69;;;2.97;100.00
38253;BME280;24785;52.372;20.672;2023-02-18T17:51:44;99781.22;;;3.00;100.00
38253;BME280;24785;52.372;20.672;2023-02-18T18:01:45;99751.13;;;2.90;100.00
38253;BME280;24785;52.372;20.672;2023-02-18T18:11:46;99757.88;;;2.97;100.00
38253;BME280;24785;52.372;20.672;2023-02-18T18:21:47;99763.66;;;2.94;100.00
38253;BME280;24785;52.372;20.672;2023-02-18T18:31:48;99770.03;;;2.81;100.00
38253;BME280;24785;52.372;20.672;2023-02-18T18:41:49;99773.84;;;3.02;100.00
38253;BME280;24785;52.372;20.672;2023-02-18T18:51:50;99784.81;;;2.94;100.00
38253;BME280;24785;52.372;20.672;2023-02-18T19:01:52;99788.19;;;2.90;100.00
38253;BME280;24785;52.372;20.672;2023-02-18T19:11:54;99795.56;;;2.88;100.00
38253;BME280;24785;52.372;20.672;2023-02-18T19:21:54;99811.47;;;2.76;100.00
38253;BME280;24785;52.372;20.672;2023-02-18T19:31:55;99813.13;;;2.65;100.00
38253;BME280;24785;52.372;20.672;2023-02-18T19:41:56;99846.03;;;2.58;100.00
38253;BME280;24785;52.372;20.672;2023-02-18T19:51:57;99849.50;;;2.58;100.00
38253;BME280;24785;52.372;20.672;2023-02-18T20:02:03;99885.22;;;2.72;100.00
38253;BME280;24785;52.372;20.672;2023-02-18T20:12:05;99889.31;;;2.80;100.00
38253;BME280;24785;52.372;20.672;2023-02-18T20:22:07;99904.84;;;2.88;100.00
38253;BME280;24785;52.372;20.672;2023-02-18T20:32:09;99917.28;;;2.88;100.00
38253;BME280;24785;52.372;20.672;2023-02-18T20:42:10;99932.69;;;2.91;100.00
38253;BME280;24785;52.372;20.672;2023-02-18T20:52:11;99939.13;;;2.95;100.00
38253;BME280;24785;52.372;20.672;2023-02-18T21:02:12;99981.56;;;3.00;100.00
38253;BME280;24785;52.372;20.672;2023-02-18T21:12:13;99954.09;;;2.89;100.00
38253;BME280;24785;52.372;20.672;2023-02-18T21:22:14;99974.16;;;2.50;100.00
38253;BME280;24785;52.372;20.672;2023-02-18T21:32:15;99999.78;;;2.26;100.00
38253;BME280;24785;52.372;20.672;2023-02-18T21:42:16;100007.13;;;2.01;100.00
38253;BME280;24785;52.372;20.672;2023-02-18T21:52:17;100049.44;;;1.82;100.00
38253;BME280;24785;52.372;20.672;2023-02-18T22:02:20;100054.13;;;1.69;100.00
38253;BME280;24785;52.372;20.672;2023-02-18T22:12:22;100072.25;;;1.65;100.00
38253;BME280;24785;52.372;20.672;2023-02-18T22:22:23;100072.22;;;1.53;100.00
38253;BME280;24785;52.372;20.672;2023-02-18T22:32:24;100094.38;;;1.52;100.00
38253;BME280;24785;52.372;20.672;2023-02-18T22:42:25;100096.34;;;1.57;100.00
38253;BME280;24785;52.372;20.672;2023-02-18T22:52:25;100095.97;;;1.53;100.00
38253;BME280;24785;52.372;20.672;2023-02-18T23:02:26;100108.81;;;1.32;100.00
38253;BME280;24785;52.372;20.672;2023-02-18T23:12:27;100134.88;;;1.46;100.00
38253;BME280;24785;52.372;20.672;2023-02-18T23:22:30;100127.81;;;1.58;100.00
38253;BME280;24785;52.372;20.672;2023-02-18T23:32:34;100157.28;;;1.74;100.00
38253;BME280;24785;52.372;20.672;2023-02-18T23:42:34;100146.94;;;1.91;100.00
38253;BME280;24785;52.372;20.672;2023-02-18T23:52:35;100164.44;;;2.03;100.00
